sensor_id;sensor_type;location;lat;lon;timestamp;temperature;humidity
6379;DHT22;3222;48.858;10.128;2023-04-29T00:01:25;13.00;99.90
6379;DHT22;3222;48.858;10.128;2023-04-29T00:03:52;13.00;99.90
6379;DHT22;3222;48.858;10.128;2023-04-29T00:06:17;12.90;99.90
6379;DHT22;3222;48.858;10.128;2023-04-29T00:08:43;12.80;99.90
6379;DHT22;3222;48.858;10.128;2023-04-29T00:11:09;12.70;99.90
6379;DHT22;3222;48.858;10.128;2023-04-29T00:13:36;12.90;99.90
6379;DHT22;3222;48.858;10.128;2023-04-29T00:16:01;12.90;99.90
6379;DHT22;3222;48.858;10.128;2023-04-29T00:18:27;12.90;99.90
6379;DHT22;3222;48.858;10.128;2023-04-29T00:20:53;13.00;99.90
6379;DHT22;3222;48.858;10.128;2023-04-29T00:23:18;12.90;99.90
6379;DHT22;3222;48.858;10.128;2023-04-29T00:25:44;12.80;99.90
6379;DHT22;3222;48.858;10.128;2023-04-29T00:28:09;12.80;99.90
6379;DHT22;3222;48.858;10.128;2023-04-29T00:30:35;12.80;99.90
6379;DHT22;3222;48.858;10.128;2023-04-29T00:33:01;12.80;99.90
6379;DHT22;3222;48.858;10.128;2023-04-29T00:35:28;12.90;99.90
6379;DHT22;3222;48.858;10.128;2023-04-29T00:37:53;12.80;99.90
6379;DHT22;3222;48.858;10.128;2023-04-29T00:40:19;12.80;99.90
6379;DHT22;3222;48.858;10.128;2023-04-29T00:42:45;12.80;99.90
6379;DHT22;3222;48.858;10.128;2023-04-29T00:45:11;12.70;99.90
6379;DHT22;3222;48.858;10.128;2023-04-29T00:47:37;12.80;99.90
6379;DHT22;3222;48.858;10.128;2023-04-29T00:50:05;12.80;99.90
6379;DHT22;3222;48.858;10.128;2023-04-29T00:52:32;12.80;99.90
6379;DHT22;3222;48.858;10.128;2023-04-29T00:54:58;12.70;99.90
6379;DHT22;3222;48.858;10.128;2023-04-29T00:57:24;12.70;99.90
6379;DHT22;3222;48.858;10.128;2023-04-29T00:59:52;12.70;99.90
6379;DHT22;3222;48.858;10.128;2023-04-29T01:02:18;12.60;99.90
6379;DHT22;3222;48.858;10.128;2023-04-29T01:04:43;12.70;99.90
6379;DHT22;3222;48.858;10.128;2023-04-29T01:07:15;12.60;99.90
6379;DHT22;3222;48.858;10.128;2023-04-29T01:10:02;12.60;99.90
6379;DHT22;3222;48.858;10.128;2023-04-29T01:12:32;12.60;99.90
6379;DHT22;3222;48.858;10.128;2023-04-29T01:15:05;12.70;99.90
6379;DHT22;3222;48.858;10.128;2023-04-29T01:17:43;12.70;99.90
6379;DHT22;3222;48.858;10.128;2023-04-29T01:20:12;12.70;99.90
6379;DHT22;3222;48.858;10.128;2023-04-29T01:22:39;12.80;99.90
6379;DHT22;3222;48.858;10.128;2023-04-29T01:25:06;12.60;99.90
6379;DHT22;3222;48.858;10.128;2023-04-29T01:30:55;12.80;99.90
6379;DHT22;3222;48.858;10.128;2023-04-29T01:33:32;12.80;99.90
6379;DHT22;3222;48.858;10.128;2023-04-29T01:36:36;12.70;99.90
6379;DHT22;3222;48.858;10.128;2023-04-29T01:39:13;12.80;99.90
6379;DHT22;3222;48.858;10.128;2023-04-29T01:41:42;12.80;99.90
6379;DHT22;3222;48.858;10.128;2023-04-29T01:44:21;12.70;99.90
6379;DHT22;3222;48.858;10.128;2023-04-29T01:46:50;12.80;99.90
6379;DHT22;3222;48.858;10.128;2023-04-29T01:49:23;12.80;99.90
6379;DHT22;3222;48.858;10.128;2023-04-29T01:51:49;12.70;99.90
6379;DHT22;3222;48.858;10.128;2023-04-29T01:54:15;12.80;99.90
6379;DHT22;3222;48.858;10.128;2023-04-29T01:56:42;12.70;99.90
6379;DHT22;3222;48.858;10.128;2023-04-29T01:59:21;12.70;99.90
6379;DHT22;3222;48.858;10.128;2023-04-29T02:01:53;12.70;99.90
6379;DHT22;3222;48.858;10.128;2023-04-29T02:04:19;12.80;99.90
6379;DHT22;3222;48.858;10.128;2023-04-29T02:06:45;12.90;99.90
6379;DHT22;3222;48.858;10.128;2023-04-29T02:09:10;12.70;99.90
6379;DHT22;3222;48.858;10.128;2023-04-29T02:11:36;12.70;99.90
6379;DHT22;3222;48.858;10.128;2023-04-29T02:14:02;12.70;99.90
6379;DHT22;3222;48.858;10.128;2023-04-29T02:16:28;12.70;99.90
6379;DHT22;3222;48.858;10.128;2023-04-29T02:19:00;12.70;99.90
6379;DHT22;3222;48.858;10.128;2023-04-29T02:21:25;12.70;99.90
6379;DHT22;3222;48.858;10.128;2023-04-29T02:23:52;12.70;99.90
6379;DHT22;3222;48.858;10.128;2023-04-29T02:26:21;12.60;99.90
6379;DHT22;3222;48.858;10.128;2023-04-29T02:28:48;12.60;99.90
6379;DHT22;3222;48.858;10.128;2023-04-29T02:31:13;12.60;99.90
6379;DHT22;3222;48.858;10.128;2023-04-29T02:33:43;12.70;99.90
6379;DHT22;3222;48.858;10.128;2023-04-29T02:36:09;12.70;99.90
6379;DHT22;3222;48.858;10.128;2023-04-29T02:38:35;12.70;99.90
6379;DHT22;3222;48.858;10.128;2023-04-29T02:41:00;12.60;99.90
6379;DHT22;3222;48.858;10.128;2023-04-29T02:43:26;12.70;99.90
6379;DHT22;3222;48.858;10.128;2023-04-29T02:45:55;12.60;99.90
6379;DHT22;3222;48.858;10.128;2023-04-29T02:48:21;12.60;99.90
6379;DHT22;3222;48.858;10.128;2023-04-29T02:50:47;12.60;99.90
6379;DHT22;3222;48.858;10.128;2023-04-29T02:53:13;12.60;99.90
6379;DHT22;3222;48.858;10.128;2023-04-29T02:55:38;12.50;99.90
6379;DHT22;3222;48.858;10.128;2023-04-29T02:58:09;12.60;99.90
6379;DHT22;3222;48.858;10.128;2023-04-29T03:00:34;12.60;99.90
6379;DHT22;3222;48.858;10.128;2023-04-29T03:03:00;12.60;99.90
6379;DHT22;3222;48.858;10.128;2023-04-29T03:05:26;12.50;99.90
6379;DHT22;3222;48.858;10.128;2023-04-29T03:07:52;12.60;99.90
6379;DHT22;3222;48.858;10.128;2023-04-29T03:10:18;12.60;99.90
6379;DHT22;3222;48.858;10.128;2023-04-29T03:12:44;12.50;99.90
6379;DHT22;3222;48.858;10.128;2023-04-29T03:15:10;12.60;99.90
6379;DHT22;3222;48.858;10.128;2023-04-29T03:17:36;12.50;99.90
6379;DHT22;3222;48.858;10.128;2023-04-29T03:20:02;12.40;99.90
6379;DHT22;3222;48.858;10.128;2023-04-29T03:22:28;12.40;99.90
6379;DHT22;3222;48.858;10.128;2023-04-29T03:24:54;12.40;99.90
6379;DHT22;3222;48.858;10.128;2023-04-29T03:27:20;12.50;99.90
6379;DHT22;3222;48.858;10.128;2023-04-29T03:29:46;12.50;99.90
6379;DHT22;3222;48.858;10.128;2023-04-29T03:32:12;12.50;99.90
6379;DHT22;3222;48.858;10.128;2023-04-29T03:34:38;12.40;99.90
6379;DHT22;3222;48.858;10.128;2023-04-29T03:37:17;12.50;99.90
6379;DHT22;3222;48.858;10.128;2023-04-29T03:39:49;12.50;99.90
6379;DHT22;3222;48.858;10.128;2023-04-29T03:42:14;12.40;99.90
6379;DHT22;3222;48.858;10.128;2023-04-29T03:44:40;12.50;99.90
6379;DHT22;3222;48.858;10.128;2023-04-29T03:47:06;12.50;99.90
6379;DHT22;3222;48.858;10.128;2023-04-29T03:49:32;12.60;99.90
6379;DHT22;3222;48.858;10.128;2023-04-29T03:51:58;12.60;99.90
6379;DHT22;3222;48.858;10.128;2023-04-29T03:54:24;12.60;99.90
6379;DHT22;3222;48.858;10.128;2023-04-29T03:56:50;12.50;99.90
6379;DHT22;3222;48.858;10.128;2023-04-29T03:59:15;12.60;99.90
6379;DHT22;3222;48.858;10.128;2023-04-29T04:01:41;12.50;99.90
6379;DHT22;3222;48.858;10.128;2023-04-29T04:04:07;12.60;99.90
6379;DHT22;3222;48.858;10.128;2023-04-29T04:06:35;12.60;99.90
6379;DHT22;3222;48.858;10.128;2023-04-29T04:09:01;12.60;99.90
6379;DHT22;3222;48.858;10.128;2023-04-29T04:11:29;12.60;99.90
6379;DHT22;3222;48.858;10.128;2023-04-29T04:13:58;12.70;99.90
6379;DHT22;3222;48.858;10.128;2023-04-29T04:16:23;12.60;99.90
6379;DHT22;3222;48.858;10.128;2023-04-29T04:18:50;12.60;99.90
6379;DHT22;3222;48.858;10.128;2023-04-29T04:21:16;12.50;99.90
6379;DHT22;3222;48.858;10.128;2023-04-29T04:23:46;12.50;99.90
6379;DHT22;3222;48.858;10.128;2023-04-29T04:26:17;12.50;99.90
6379;DHT22;3222;48.858;10.128;2023-04-29T04:28:59;12.60;99.90
6379;DHT22;3222;48.858;10.128;2023-04-29T04:31:57;12.70;99.90
6379;DHT22;3222;48.858;10.128;2023-04-29T04:34:23;12.70;99.90
6379;DHT22;3222;48.858;10.128;2023-04-29T04:36:51;12.70;99.90
6379;DHT22;3222;48.858;10.128;2023-04-29T04:39:17;12.60;99.90
6379;DHT22;3222;48.858;10.128;2023-04-29T04:41:43;12.60;99.90
6379;DHT22;3222;48.858;10.128;2023-04-29T04:44:09;12.70;99.90
6379;DHT22;3222;48.858;10.128;2023-04-29T04:46:45;12.60;99.90
6379;DHT22;3222;48.858;10.128;2023-04-29T04:49:15;12.60;99.90
6379;DHT22;3222;48.858;10.128;2023-04-29T04:51:50;12.60;99.90
6379;DHT22;3222;48.858;10.128;2023-04-29T04:54:16;12.50;99.90
6379;DHT22;3222;48.858;10.128;2023-04-29T04:56:42;12.60;99.90
6379;DHT22;3222;48.858;10.128;2023-04-29T04:59:08;12.60;99.90
6379;DHT22;3222;48.858;10.128;2023-04-29T05:01:36;12.50;99.90
6379;DHT22;3222;48.858;10.128;2023-04-29T05:04:02;12.50;99.90
6379;DHT22;3222;48.858;10.128;2023-04-29T05:06:29;12.50;99.90
6379;DHT22;3222;48.858;10.128;2023-04-29T05:08:54;12.50;99.90
6379;DHT22;3222;48.858;10.128;2023-04-29T05:11:22;12.50;99.90
6379;DHT22;3222;48.858;10.128;2023-04-29T05:14:03;12.40;99.90
6379;DHT22;3222;48.858;10.128;2023-04-29T05:16:30;12.50;99.90
6379;DHT22;3222;48.858;10.128;2023-04-29T05:18:55;12.50;99.90
6379;DHT22;3222;48.858;10.128;2023-04-29T05:21:25;12.40;99.90
6379;DHT22;3222;48.858;10.128;2023-04-29T05:23:50;12.40;99.90
6379;DHT22;3222;48.858;10.128;2023-04-29T05:26:16;12.40;99.90
6379;DHT22;3222;48.858;10.128;2023-04-29T05:28:42;12.50;99.90
6379;DHT22;3222;48.858;10.128;2023-04-29T05:31:08;12.40;99.90
6379;DHT22;3222;48.858;10.128;2023-04-29T05:33:34;12.40;99.90
6379;DHT22;3222;48.858;10.128;2023-04-29T05:36:00;12.50;99.90
6379;DHT22;3222;48.858;10.128;2023-04-29T05:38:26;12.50;99.90
6379;DHT22;3222;48.858;10.128;2023-04-29T05:41:07;12.50;99.90
6379;DHT22;3222;48.858;10.128;2023-04-29T05:43:51;12.50;99.90
6379;DHT22;3222;48.858;10.128;2023-04-29T05:46:17;12.50;99.90
6379;DHT22;3222;48.858;10.128;2023-04-29T05:48:44;12.50;99.90
6379;DHT22;3222;48.858;10.128;2023-04-29T05:51:12;12.50;99.90
6379;DHT22;3222;48.858;10.128;2023-04-29T05:53:38;12.50;99.90
6379;DHT22;3222;48.858;10.128;2023-04-29T05:56:05;12.60;99.90
6379;DHT22;3222;48.858;10.128;2023-04-29T05:58:36;12.60;99.90
6379;DHT22;3222;48.858;10.128;2023-04-29T06:01:02;12.50;99.90
6379;DHT22;3222;48.858;10.128;2023-04-29T06:03:28;12.50;99.90
6379;DHT22;3222;48.858;10.128;2023-04-29T06:06:11;12.60;99.90
6379;DHT22;3222;48.858;10.128;2023-04-29T06:08:56;12.50;99.90
6379;DHT22;3222;48.858;10.128;2023-04-29T06:11:25;12.50;99.90
6379;DHT22;3222;48.858;10.128;2023-04-29T06:13:51;12.50;99.90
6379;DHT22;3222;48.858;10.128;2023-04-29T06:16:17;12.50;99.90
6379;DHT22;3222;48.858;10.128;2023-04-29T06:18:43;12.70;99.90
6379;DHT22;3222;48.858;10.128;2023-04-29T06:21:08;12.70;99.90
6379;DHT22;3222;48.858;10.128;2023-04-29T06:23:35;12.90;99.90
6379;DHT22;3222;48.858;10.128;2023-04-29T06:26:06;12.70;99.90
6379;DHT22;3222;48.858;10.128;2023-04-29T06:28:32;12.60;99.90
6379;DHT22;3222;48.858;10.128;2023-04-29T06:30:57;12.60;99.90
6379;DHT22;3222;48.858;10.128;2023-04-29T06:33:23;12.60;99.90
6379;DHT22;3222;48.858;10.128;2023-04-29T06:35:49;12.60;99.90
6379;DHT22;3222;48.858;10.128;2023-04-29T06:38:43;12.50;99.90
6379;DHT22;3222;48.858;10.128;2023-04-29T06:41:20;12.70;99.90
6379;DHT22;3222;48.858;10.128;2023-04-29T06:44:06;12.60;99.90
6379;DHT22;3222;48.858;10.128;2023-04-29T06:46:50;12.70;99.90
6379;DHT22;3222;48.858;10.128;2023-04-29T06:49:22;12.70;99.90
6379;DHT22;3222;48.858;10.128;2023-04-29T06:51:48;12.80;99.90
6379;DHT22;3222;48.858;10.128;2023-04-29T06:54:13;12.80;99.90
6379;DHT22;3222;48.858;10.128;2023-04-29T06:56:40;12.80;99.90
6379;DHT22;3222;48.858;10.128;2023-04-29T06:59:06;12.80;99.90
6379;DHT22;3222;48.858;10.128;2023-04-29T07:01:34;12.80;99.90
6379;DHT22;3222;48.858;10.128;2023-04-29T07:03:59;12.80;99.90
6379;DHT22;3222;48.858;10.128;2023-04-29T07:06:26;12.90;99.90
6379;DHT22;3222;48.858;10.128;2023-04-29T07:08:52;12.80;99.90
6379;DHT22;3222;48.858;10.128;2023-04-29T07:11:17;12.80;99.90
6379;DHT22;3222;48.858;10.128;2023-04-29T07:13:43;12.70;99.90
6379;DHT22;3222;48.858;10.128;2023-04-29T07:16:15;12.80;99.90
6379;DHT22;3222;48.858;10.128;2023-04-29T07:18:42;12.80;99.90
6379;DHT22;3222;48.858;10.128;2023-04-29T07:21:08;12.80;99.90
6379;DHT22;3222;48.858;10.128;2023-04-29T07:23:34;12.70;99.90
6379;DHT22;3222;48.858;10.128;2023-04-29T07:26:11;12.80;99.90
6379;DHT22;3222;48.858;10.128;2023-04-29T07:28:38;12.80;99.90
6379;DHT22;3222;48.858;10.128;2023-04-29T07:31:04;12.80;99.90
6379;DHT22;3222;48.858;10.128;2023-04-29T07:33:30;12.80;99.90
6379;DHT22;3222;48.858;10.128;2023-04-29T07:35:56;12.90;99.90
6379;DHT22;3222;48.858;10.128;2023-04-29T07:38:21;12.90;99.90
6379;DHT22;3222;48.858;10.128;2023-04-29T07:40:47;12.90;99.90
6379;DHT22;3222;48.858;10.128;2023-04-29T07:43:13;12.90;99.90
6379;DHT22;3222;48.858;10.128;2023-04-29T07:45:38;12.80;99.90
6379;DHT22;3222;48.858;10.128;2023-04-29T07:48:05;12.90;99.90
6379;DHT22;3222;48.858;10.128;2023-04-29T07:50:33;12.90;99.90
6379;DHT22;3222;48.858;10.128;2023-04-29T07:53:01;13.00;99.90
6379;DHT22;3222;48.858;10.128;2023-04-29T07:55:27;12.90;99.90
6379;DHT22;3222;48.858;10.128;2023-04-29T07:57:55;13.00;99.90
6379;DHT22;3222;48.858;10.128;2023-04-29T08:00:22;13.00;99.90
6379;DHT22;3222;48.858;10.128;2023-04-29T08:02:52;13.00;99.90
6379;DHT22;3222;48.858;10.128;2023-04-29T08:05:18;13.00;99.90
6379;DHT22;3222;48.858;10.128;2023-04-29T08:07:49;13.00;99.90
6379;DHT22;3222;48.858;10.128;2023-04-29T08:10:16;13.00;99.90
6379;DHT22;3222;48.858;10.128;2023-04-29T08:12:44;13.00;99.90
6379;DHT22;3222;48.858;10.128;2023-04-29T08:15:10;13.20;99.90
6379;DHT22;3222;48.858;10.128;2023-04-29T08:17:36;13.10;99.90
6379;DHT22;3222;48.858;10.128;2023-04-29T08:20:02;13.10;99.90
6379;DHT22;3222;48.858;10.128;2023-04-29T08:22:27;13.10;99.90
6379;DHT22;3222;48.858;10.128;2023-04-29T08:24:53;13.00;99.90
6379;DHT22;3222;48.858;10.128;2023-04-29T08:27:19;13.00;99.90
6379;DHT22;3222;48.858;10.128;2023-04-29T08:29:46;12.90;99.90
6379;DHT22;3222;48.858;10.128;2023-04-29T08:32:12;13.00;99.90
6379;DHT22;3222;48.858;10.128;2023-04-29T08:34:37;13.00;99.90
6379;DHT22;3222;48.858;10.128;2023-04-29T08:37:03;13.00;99.90
6379;DHT22;3222;48.858;10.128;2023-04-29T08:39:29;13.00;99.90
6379;DHT22;3222;48.858;10.128;2023-04-29T08:41:58;13.00;99.90
6379;DHT22;3222;48.858;10.128;2023-04-29T08:44:25;13.00;99.90
6379;DHT22;3222;48.858;10.128;2023-04-29T08:46:52;13.00;99.90
6379;DHT22;3222;48.858;10.128;2023-04-29T08:49:18;13.00;99.90
6379;DHT22;3222;48.858;10.128;2023-04-29T08:51:43;12.90;99.90
6379;DHT22;3222;48.858;10.128;2023-04-29T08:54:10;12.90;99.90
6379;DHT22;3222;48.858;10.128;2023-04-29T08:56:36;13.00;99.90
6379;DHT22;3222;48.858;10.128;2023-04-29T08:59:03;12.90;99.90
6379;DHT22;3222;48.858;10.128;2023-04-29T09:01:31;13.00;99.90
6379;DHT22;3222;48.858;10.128;2023-04-29T09:04:14;12.90;99.90
6379;DHT22;3222;48.858;10.128;2023-04-29T09:06:42;13.00;99.90
6379;DHT22;3222;48.858;10.128;2023-04-29T09:09:08;13.00;99.90
6379;DHT22;3222;48.858;10.128;2023-04-29T09:11:34;13.10;99.90
6379;DHT22;3222;48.858;10.128;2023-04-29T09:14:02;13.10;99.90
6379;DHT22;3222;48.858;10.128;2023-04-29T09:16:29;13.00;99.90
6379;DHT22;3222;48.858;10.128;2023-04-29T09:18:55;13.00;99.90
6379;DHT22;3222;48.858;10.128;2023-04-29T09:21:26;12.90;99.90
6379;DHT22;3222;48.858;10.128;2023-04-29T09:23:54;13.00;99.90
6379;DHT22;3222;48.858;10.128;2023-04-29T09:26:21;13.00;99.90
6379;DHT22;3222;48.858;10.128;2023-04-29T09:29:04;13.00;99.90
6379;DHT22;3222;48.858;10.128;2023-04-29T09:31:30;13.00;99.90
6379;DHT22;3222;48.858;10.128;2023-04-29T09:33:56;13.00;99.90
6379;DHT22;3222;48.858;10.128;2023-04-29T09:36:45;13.00;99.90
6379;DHT22;3222;48.858;10.128;2023-04-29T09:39:22;13.00;99.90
6379;DHT22;3222;48.858;10.128;2023-04-29T09:44:20;12.90;99.90
6379;DHT22;3222;48.858;10.128;2023-04-29T09:49:28;13.00;99.90
6379;DHT22;3222;48.858;10.128;2023-04-29T09:51:59;12.90;99.90
6379;DHT22;3222;48.858;10.128;2023-04-29T09:54:27;12.90;99.90
6379;DHT22;3222;48.858;10.128;2023-04-29T09:56:54;12.90;99.90
6379;DHT22;3222;48.858;10.128;2023-04-29T09:59:21;12.90;99.90
6379;DHT22;3222;48.858;10.128;2023-04-29T10:01:52;13.00;99.90
6379;DHT22;3222;48.858;10.128;2023-04-29T10:04:20;13.00;99.90
6379;DHT22;3222;48.858;10.128;2023-04-29T10:06:48;13.00;99.90
6379;DHT22;3222;48.858;10.128;2023-04-29T10:09:16;13.10;99.90
6379;DHT22;3222;48.858;10.128;2023-04-29T10:11:47;13.10;99.90
6379;DHT22;3222;48.858;10.128;2023-04-29T10:14:18;13.20;99.90
6379;DHT22;3222;48.858;10.128;2023-04-29T10:16:44;13.20;99.90
6379;DHT22;3222;48.858;10.128;2023-04-29T10:19:32;13.30;99.90
6379;DHT22;3222;48.858;10.128;2023-04-29T10:22:11;13.10;99.90
6379;DHT22;3222;48.858;10.128;2023-04-29T10:24:41;13.20;99.90
6379;DHT22;3222;48.858;10.128;2023-04-29T10:27:09;13.30;99.90
6379;DHT22;3222;48.858;10.128;2023-04-29T10:29:37;13.40;99.90
6379;DHT22;3222;48.858;10.128;2023-04-29T10:32:06;13.40;99.90
6379;DHT22;3222;48.858;10.128;2023-04-29T10:34:36;13.40;99.90
6379;DHT22;3222;48.858;10.128;2023-04-29T10:37:03;13.30;99.90
6379;DHT22;3222;48.858;10.128;2023-04-29T10:39:36;13.30;99.90
6379;DHT22;3222;48.858;10.128;2023-04-29T10:42:05;13.30;99.90
6379;DHT22;3222;48.858;10.128;2023-04-29T10:48:07;13.40;99.90
6379;DHT22;3222;48.858;10.128;2023-04-29T10:50:40;13.40;99.90
6379;DHT22;3222;48.858;10.128;2023-04-29T10:53:09;13.40;99.90
6379;DHT22;3222;48.858;10.128;2023-04-29T10:55:36;13.40;99.90
6379;DHT22;3222;48.858;10.128;2023-04-29T10:58:03;13.40;99.90
6379;DHT22;3222;48.858;10.128;2023-04-29T11:00:33;13.40;99.90
6379;DHT22;3222;48.858;10.128;2023-04-29T11:03:00;13.40;99.90
6379;DHT22;3222;48.858;10.128;2023-04-29T11:05:36;13.40;99.90
6379;DHT22;3222;48.858;10.128;2023-04-29T11:08:18;13.40;99.90
6379;DHT22;3222;48.858;10.128;2023-04-29T11:10:52;13.50;99.90
6379;DHT22;3222;48.858;10.128;2023-04-29T11:13:25;13.40;99.90
6379;DHT22;3222;48.858;10.128;2023-04-29T11:15:51;13.40;99.90
6379;DHT22;3222;48.858;10.128;2023-04-29T11:18:17;13.30;99.90
6379;DHT22;3222;48.858;10.128;2023-04-29T11:23:35;13.30;99.90
6379;DHT22;3222;48.858;10.128;2023-04-29T11:26:01;13.40;99.90
6379;DHT22;3222;48.858;10.128;2023-04-29T11:28:28;13.40;99.90
6379;DHT22;3222;48.858;10.128;2023-04-29T11:30:59;13.40;99.90
6379;DHT22;3222;48.858;10.128;2023-04-29T11:33:26;13.40;99.90
6379;DHT22;3222;48.858;10.128;2023-04-29T11:35:53;13.40;99.90
6379;DHT22;3222;48.858;10.128;2023-04-29T11:38:26;13.50;99.90
6379;DHT22;3222;48.858;10.128;2023-04-29T11:40:54;13.50;99.90
6379;DHT22;3222;48.858;10.128;2023-04-29T11:43:21;13.40;99.90
6379;DHT22;3222;48.858;10.128;2023-04-29T11:45:47;13.40;99.90
6379;DHT22;3222;48.858;10.128;2023-04-29T11:48:20;13.40;99.90
6379;DHT22;3222;48.858;10.128;2023-04-29T11:50:48;13.30;99.90
6379;DHT22;3222;48.858;10.128;2023-04-29T11:53:14;13.30;99.90
6379;DHT22;3222;48.858;10.128;2023-04-29T11:55:44;13.30;99.90
6379;DHT22;3222;48.858;10.128;2023-04-29T11:58:09;13.40;99.90
6379;DHT22;3222;48.858;10.128;2023-04-29T12:00:35;13.30;99.90
6379;DHT22;3222;48.858;10.128;2023-04-29T12:03:15;13.40;99.90
6379;DHT22;3222;48.858;10.128;2023-04-29T12:05:52;13.40;99.90
6379;DHT22;3222;48.858;10.128;2023-04-29T12:08:22;13.40;99.90
6379;DHT22;3222;48.858;10.128;2023-04-29T12:10:49;13.50;99.90
6379;DHT22;3222;48.858;10.128;2023-04-29T12:13:19;13.40;99.90
6379;DHT22;3222;48.858;10.128;2023-04-29T12:15:45;13.40;99.90
6379;DHT22;3222;48.858;10.128;2023-04-29T12:18:13;13.40;99.90
6379;DHT22;3222;48.858;10.128;2023-04-29T12:20:39;13.40;99.90
6379;DHT22;3222;48.858;10.128;2023-04-29T12:25:38;13.50;99.90
6379;DHT22;3222;48.858;10.128;2023-04-29T12:28:14;13.40;99.90
6379;DHT22;3222;48.858;10.128;2023-04-29T12:30:42;13.40;99.90
6379;DHT22;3222;48.858;10.128;2023-04-29T12:33:08;13.40;99.90
6379;DHT22;3222;48.858;10.128;2023-04-29T12:35:34;13.50;99.90
6379;DHT22;3222;48.858;10.128;2023-04-29T12:38:01;13.40;99.90
6379;DHT22;3222;48.858;10.128;2023-04-29T12:40:27;13.40;99.90
6379;DHT22;3222;48.858;10.128;2023-04-29T12:42:53;13.50;99.90
6379;DHT22;3222;48.858;10.128;2023-04-29T12:45:30;13.50;99.90
6379;DHT22;3222;48.858;10.128;2023-04-29T12:47:57;13.50;99.90
6379;DHT22;3222;48.858;10.128;2023-04-29T12:50:37;13.40;99.90
6379;DHT22;3222;48.858;10.128;2023-04-29T12:53:04;13.50;99.90
6379;DHT22;3222;48.858;10.128;2023-04-29T12:55:34;13.40;99.90
6379;DHT22;3222;48.858;10.128;2023-04-29T12:58:01;13.40;99.90
6379;DHT22;3222;48.858;10.128;2023-04-29T13:00:27;13.40;99.90
6379;DHT22;3222;48.858;10.128;2023-04-29T13:02:53;13.40;99.90
6379;DHT22;3222;48.858;10.128;2023-04-29T13:05:18;13.40;99.90
6379;DHT22;3222;48.858;10.128;2023-04-29T13:07:44;13.40;99.90
6379;DHT22;3222;48.858;10.128;2023-04-29T13:10:10;13.30;99.90
6379;DHT22;3222;48.858;10.128;2023-04-29T13:12:39;13.30;99.90
6379;DHT22;3222;48.858;10.128;2023-04-29T13:15:06;13.30;99.90
6379;DHT22;3222;48.858;10.128;2023-04-29T13:17:35;13.30;99.90
6379;DHT22;3222;48.858;10.128;2023-04-29T13:20:04;13.30;99.90
6379;DHT22;3222;48.858;10.128;2023-04-29T13:22:30;13.30;99.90
6379;DHT22;3222;48.858;10.128;2023-04-29T13:24:56;13.40;99.90
6379;DHT22;3222;48.858;10.128;2023-04-29T13:27:21;13.40;99.90
6379;DHT22;3222;48.858;10.128;2023-04-29T13:29:47;13.40;99.90
6379;DHT22;3222;48.858;10.128;2023-04-29T13:32:13;13.50;99.90
6379;DHT22;3222;48.858;10.128;2023-04-29T13:34:40;13.60;99.90
6379;DHT22;3222;48.858;10.128;2023-04-29T13:37:11;13.80;99.90
6379;DHT22;3222;48.858;10.128;2023-04-29T13:39:36;13.80;99.90
6379;DHT22;3222;48.858;10.128;2023-04-29T13:42:02;13.80;99.90
6379;DHT22;3222;48.858;10.128;2023-04-29T13:44:28;13.80;99.90
6379;DHT22;3222;48.858;10.128;2023-04-29T13:46:54;13.90;99.90
6379;DHT22;3222;48.858;10.128;2023-04-29T13:49:20;13.90;99.90
6379;DHT22;3222;48.858;10.128;2023-04-29T13:51:45;13.80;99.90
6379;DHT22;3222;48.858;10.128;2023-04-29T13:54:11;13.80;99.90
6379;DHT22;3222;48.858;10.128;2023-04-29T13:56:37;13.80;99.90
6379;DHT22;3222;48.858;10.128;2023-04-29T13:59:03;13.80;99.90
6379;DHT22;3222;48.858;10.128;2023-04-29T14:01:28;13.80;99.90
6379;DHT22;3222;48.858;10.128;2023-04-29T14:03:54;13.80;99.90
6379;DHT22;3222;48.858;10.128;2023-04-29T14:06:20;13.70;99.90
6379;DHT22;3222;48.858;10.128;2023-04-29T14:08:46;13.70;99.90
6379;DHT22;3222;48.858;10.128;2023-04-29T14:11:11;13.70;99.90
6379;DHT22;3222;48.858;10.128;2023-04-29T14:13:37;13.70;99.90
6379;DHT22;3222;48.858;10.128;2023-04-29T14:16:03;13.70;99.90
6379;DHT22;3222;48.858;10.128;2023-04-29T14:18:31;13.80;99.90
6379;DHT22;3222;48.858;10.128;2023-04-29T14:20:56;13.70;99.90
6379;DHT22;3222;48.858;10.128;2023-04-29T14:23:24;13.70;99.90
6379;DHT22;3222;48.858;10.128;2023-04-29T14:25:50;13.70;99.90
6379;DHT22;3222;48.858;10.128;2023-04-29T14:28:16;13.70;99.90
6379;DHT22;3222;48.858;10.128;2023-04-29T14:30:41;13.70;99.90
6379;DHT22;3222;48.858;10.128;2023-04-29T14:33:08;13.60;99.90
6379;DHT22;3222;48.858;10.128;2023-04-29T14:35:33;13.70;99.90
6379;DHT22;3222;48.858;10.128;2023-04-29T14:37:59;13.70;99.90
6379;DHT22;3222;48.858;10.128;2023-04-29T14:40:25;13.70;99.90
6379;DHT22;3222;48.858;10.128;2023-04-29T14:42:51;13.70;99.90
6379;DHT22;3222;48.858;10.128;2023-04-29T14:45:16;13.70;99.90
6379;DHT22;3222;48.858;10.128;2023-04-29T14:47:42;13.70;99.90
6379;DHT22;3222;48.858;10.128;2023-04-29T14:50:08;13.70;99.90
6379;DHT22;3222;48.858;10.128;2023-04-29T14:52:34;13.70;99.90
6379;DHT22;3222;48.858;10.128;2023-04-29T14:55:01;13.70;99.90
6379;DHT22;3222;48.858;10.128;2023-04-29T14:57:27;13.60;99.90
6379;DHT22;3222;48.858;10.128;2023-04-29T14:59:54;13.60;99.90
6379;DHT22;3222;48.858;10.128;2023-04-29T15:02:20;13.60;99.90
6379;DHT22;3222;48.858;10.128;2023-04-29T15:04:46;13.60;99.90
6379;DHT22;3222;48.858;10.128;2023-04-29T15:07:12;13.60;99.90
6379;DHT22;3222;48.858;10.128;2023-04-29T15:09:38;13.70;99.90
6379;DHT22;3222;48.858;10.128;2023-04-29T15:12:04;13.80;99.90
6379;DHT22;3222;48.858;10.128;2023-04-29T15:14:30;13.80;99.90
6379;DHT22;3222;48.858;10.128;2023-04-29T15:16:56;13.70;99.90
6379;DHT22;3222;48.858;10.128;2023-04-29T15:19:21;13.80;99.90
6379;DHT22;3222;48.858;10.128;2023-04-29T15:21:49;13.70;99.90
6379;DHT22;3222;48.858;10.128;2023-04-29T15:24:16;13.70;99.90
6379;DHT22;3222;48.858;10.128;2023-04-29T15:26:42;13.70;99.90
6379;DHT22;3222;48.858;10.128;2023-04-29T15:29:08;13.60;99.90
6379;DHT22;3222;48.858;10.128;2023-04-29T15:31:34;13.60;99.90
6379;DHT22;3222;48.858;10.128;2023-04-29T15:33:59;13.60;99.90
6379;DHT22;3222;48.858;10.128;2023-04-29T15:36:29;13.60;99.90
6379;DHT22;3222;48.858;10.128;2023-04-29T15:38:55;13.60;99.90
6379;DHT22;3222;48.858;10.128;2023-04-29T15:41:21;13.60;99.90
6379;DHT22;3222;48.858;10.128;2023-04-29T15:43:47;13.60;99.90
6379;DHT22;3222;48.858;10.128;2023-04-29T15:46:14;13.60;99.90
6379;DHT22;3222;48.858;10.128;2023-04-29T15:48:40;13.70;99.90
6379;DHT22;3222;48.858;10.128;2023-04-29T15:51:05;13.70;99.90
6379;DHT22;3222;48.858;10.128;2023-04-29T15:53:32;13.60;99.90
6379;DHT22;3222;48.858;10.128;2023-04-29T15:55:57;13.50;99.90
6379;DHT22;3222;48.858;10.128;2023-04-29T15:58:23;13.60;99.90
6379;DHT22;3222;48.858;10.128;2023-04-29T16:00:50;13.50;99.90
6379;DHT22;3222;48.858;10.128;2023-04-29T16:03:15;13.60;99.90
6379;DHT22;3222;48.858;10.128;2023-04-29T16:05:43;13.50;99.90
6379;DHT22;3222;48.858;10.128;2023-04-29T16:08:09;13.50;99.90